createdAt,value
2016-03-06T00:00:12.885Z,99.01
2016-03-06T00:01:44.173Z,98.44
2016-03-06T00:02:28.659Z,98.91
2016-03-06T00:03:28.678Z,98.54
2016-03-06T00:04:28.743Z,98.06
2016-03-06T00:05:28.714Z,99.01
2016-03-06T00:06:29.425Z,99.39
2016-03-06T00:07:35.631Z,99.48
2016-03-06T00:08:28.758Z,99.39
2016-03-06T00:09:47.995Z,99.39
2016-03-06T00:10:28.793Z,99.1
2016-03-06T00:11:54.487Z,99.29
2016-03-06T00:12:41.584Z,99.86
2016-03-06T00:13:54.540Z,99.96
2016-03-06T00:16:07.326Z,99.48
2016-03-06T00:16:51.219Z,99.48
2016-03-06T00:18:00.737Z,99.39
2016-03-06T00:19:00.771Z,99.2
2016-03-06T00:20:06.962Z,99.29
2016-03-06T00:21:06.980Z,99.01
2016-03-06T00:22:06.998Z,99.2
2016-03-06T00:23:19.767Z,99.48
2016-03-06T00:24:07.612Z,99.96
2016-03-06T00:25:07.053Z,99.67
2016-03-06T00:28:50.987Z,99.86
2016-03-06T00:31:32.463Z,99.58
2016-03-06T00:32:32.481Z,99.99
2016-03-06T00:34:03.874Z,99.48
2016-03-06T00:35:01.378Z,99.67
2016-03-06T00:36:01.395Z,99.48
2016-03-06T00:37:14.211Z,99.48
2016-03-06T00:38:42.263Z,99.99
2016-03-06T00:39:26.141Z,99.99
2016-03-06T00:40:26.205Z,99.99
2016-03-06T00:41:57.474Z,99.99
2016-03-06T00:42:41.352Z,99.99
2016-03-06T00:43:41.401Z,99.99
2016-03-06T00:45:15.702Z,99.99
2016-03-06T00:45:54.032Z,99.99
2016-03-06T00:46:54.050Z,99.99
2016-03-06T00:47:54.052Z,99.99
2016-03-06T00:49:25.386Z,99.99
2016-03-06T00:50:09.323Z,99.99
2016-03-06T00:51:28.563Z,99.99
2016-03-06T00:52:09.563Z,99.99
2016-03-06T00:55:50.339Z,99.99
2016-03-06T00:56:50.359Z,99.99
2016-03-06T00:58:06.173Z,99.99
2016-03-06T00:58:59.911Z,99.99
2016-03-06T01:00:12.678Z,99.99
2016-03-06T01:01:12.698Z,99.99
2016-03-06T01:02:25.750Z,99.99
2016-03-06T01:03:00.047Z,99.99
2016-03-06T01:04:03.142Z,99.99
2016-03-06T01:05:12.692Z,99.99
2016-03-06T01:06:12.741Z,99.99
2016-03-06T01:07:15.839Z,99.99
2016-03-06T01:08:25.391Z,99.99
2016-03-06T01:09:25.424Z,99.99
2016-03-06T01:10:56.713Z,99.99
2016-03-06T01:11:40.747Z,99.99
2016-03-06T01:12:40.766Z,99.99
2016-03-06T01:13:47.049Z,99.99
2016-03-06T01:14:50.990Z,99.99
2016-03-06T01:17:06.182Z,99.99
2016-03-06T01:18:06.170Z,99.99
2016-03-06T01:19:18.923Z,99.99
2016-03-06T01:20:06.815Z,99.99
2016-03-06T01:21:31.837Z,99.99
2016-03-06T01:22:15.837Z,99.99
2016-03-06T01:26:06.191Z,99.99
2016-03-06T01:26:34.897Z,99.99
2016-03-06T01:28:50.715Z,99.99
2016-03-06T01:29:50.733Z,99.99
2016-03-06T01:30:57.017Z,99.99
2016-03-06T01:31:52.175Z,99.99
2016-03-06T01:32:50.772Z,99.99
2016-03-06T01:34:16.478Z,99.99
2016-03-06T01:36:19.577Z,99.99
2016-03-06T01:37:19.580Z,99.99
2016-03-06T01:38:34.882Z,99.99
2016-03-06T01:39:34.791Z,99.99
2016-03-06T01:40:34.857Z,99.99
2016-03-06T01:41:44.405Z,99.99
2016-03-06T01:43:59.583Z,99.99
2016-03-06T01:46:09.745Z,99.99
2016-03-06T01:47:28.984Z,99.99
2016-03-06T01:48:13.671Z,99.99
2016-03-06T01:50:55.243Z,99.99
2016-03-06T01:52:26.545Z,99.99
2016-03-06T01:53:04.842Z,99.99
2016-03-06T01:54:36.175Z,99.99
2016-03-06T01:55:20.050Z,99.99
2016-03-06T01:56:20.068Z,99.99
2016-03-06T01:57:46.355Z,99.99
2016-03-06T01:58:37.405Z,99.99
2016-03-06T01:59:50.298Z,99.99
2016-03-06T02:01:24.741Z,99.99
2016-03-06T02:02:34.400Z,99.99
2016-03-06T02:04:00.074Z,99.99
2016-03-06T02:05:09.483Z,99.99
2016-03-06T02:06:03.049Z,99.99
2016-03-06T02:07:15.911Z,99.99
2016-03-06T02:08:12.522Z,99.99
2016-03-06T02:08:59.853Z,99.99
2016-03-06T02:10:19.012Z,99.99
2016-03-06T02:11:02.843Z,99.99
2016-03-06T02:12:22.080Z,99.99
2016-03-06T02:13:02.864Z,99.99
2016-03-06T02:14:34.260Z,99.99
2016-03-06T02:15:18.119Z,99.99
2016-03-06T02:16:37.360Z,99.99
2016-03-06T02:17:21.235Z,99.99
2016-03-06T02:18:21.237Z,99.99
2016-03-06T02:19:21.302Z,99.99
2016-03-06T02:20:21.882Z,99.99
2016-03-06T02:21:46.967Z,99.99
2016-03-06T02:22:43.609Z,99.99
2016-03-06T02:23:30.862Z,99.99
2016-03-06T02:24:56.568Z,99.99
2016-03-06T02:25:53.180Z,99.99
2016-03-06T02:26:59.668Z,99.99
2016-03-06T02:28:09.233Z,99.99
2016-03-06T02:29:09.236Z,99.99
2016-03-06T02:30:22.003Z,99.99
2016-03-06T02:31:22.022Z,99.99
2016-03-06T02:32:34.950Z,99.99
2016-03-06T02:33:09.293Z,99.99
2016-03-06T02:35:37.300Z,99.99
2016-03-06T02:36:24.554Z,99.99
2016-03-06T02:37:24.556Z,99.99
2016-03-06T02:38:33.919Z,99.99
2016-03-06T02:39:53.343Z,99.99
2016-03-06T02:40:46.877Z,99.99
2016-03-06T02:41:30.738Z,99.99
2016-03-06T02:42:30.757Z,99.99
2016-03-06T02:43:30.776Z,99.99
2016-03-06T02:44:30.779Z,99.99
2016-03-06T02:45:43.532Z,99.99
2016-03-06T02:46:37.080Z,99.99
2016-03-06T02:47:50.021Z,99.99
2016-03-06T02:48:30.836Z,99.99
2016-03-06T02:50:02.167Z,99.99
2016-03-06T02:50:46.170Z,99.99
2016-03-06T02:51:46.140Z,99.99
2016-03-06T02:53:11.846Z,99.99
2016-03-06T02:53:55.724Z,99.99
2016-03-06T02:54:55.759Z,99.99
2016-03-06T02:55:55.792Z,99.99
2016-03-06T02:57:02.045Z,99.99
2016-03-06T02:57:55.797Z,99.99
2016-03-06T02:58:55.800Z,99.99
2016-03-06T03:00:02.084Z,99.99
2016-03-06T03:00:55.853Z,99.99
2016-03-06T03:01:55.855Z,99.99
2016-03-06T03:03:15.093Z,99.99
2016-03-06T03:04:08.611Z,99.99
2016-03-06T03:05:27.210Z,99.99
2016-03-06T03:05:56.022Z,99.99
2016-03-06T03:06:55.916Z,99.99
2016-03-06T03:08:02.199Z,99.99
2016-03-06T03:08:55.953Z,99.99
2016-03-06T03:10:08.689Z,99.99
2016-03-06T03:11:02.255Z,99.99
2016-03-06T03:11:56.069Z,99.99
2016-03-06T03:13:15.229Z,99.99
2016-03-06T03:13:56.027Z,99.99
2016-03-06T03:14:56.031Z,99.99
2016-03-06T03:16:27.365Z,99.99
2016-03-06T03:17:08.615Z,99.99
2016-03-06T03:18:05.601Z,99.99
2016-03-06T03:19:24.808Z,99.99
2016-03-06T03:20:08.701Z,99.99
2016-03-06T03:21:08.719Z,99.99
2016-03-06T03:22:08.721Z,99.99
2016-03-06T03:23:08.959Z,99.99
2016-03-06T03:24:08.601Z,99.99
2016-03-06T03:25:34.451Z,99.99
2016-03-06T03:26:18.326Z,99.99
2016-03-06T03:27:37.550Z,99.99
2016-03-06T03:28:18.972Z,99.99
2016-03-06T03:29:44.039Z,99.99
2016-03-06T03:30:28.028Z,99.99
2016-03-06T03:31:28.030Z,99.99
2016-03-06T03:32:34.314Z,99.99
2016-03-06T03:33:29.488Z,99.99
2016-03-06T03:34:47.351Z,99.99
2016-03-06T03:35:53.775Z,99.99
2016-03-06T03:36:28.106Z,99.99
2016-03-06T03:38:00.030Z,99.99
2016-03-06T03:39:06.375Z,99.99
2016-03-06T03:40:03.114Z,99.99
2016-03-06T03:41:22.304Z,99.99
2016-03-06T03:42:04.525Z,99.99
2016-03-06T03:44:46.969Z,99.99
2016-03-06T03:45:21.313Z,99.99
2016-03-06T03:46:21.310Z,99.99
2016-03-06T03:47:21.963Z,99.99
2016-03-06T03:48:21.335Z,99.99
2016-03-06T03:49:21.942Z,99.99
2016-03-06T03:50:34.100Z,99.99
2016-03-06T03:51:34.101Z,99.99
2016-03-06T03:52:47.054Z,99.99
2016-03-06T03:53:30.945Z,99.99
2016-03-06T03:54:30.933Z,99.99
2016-03-06T03:55:50.169Z,99.99
2016-03-06T03:56:30.969Z,99.99
2016-03-06T03:57:56.659Z,99.99
2016-03-06T03:58:44.146Z,99.99
2016-03-06T03:59:41.132Z,99.99
2016-03-06T04:00:47.431Z,99.99
2016-03-06T04:01:42.559Z,99.99
2016-03-06T04:04:00.047Z,99.99
2016-03-06T04:05:00.065Z,99.99
2016-03-06T04:06:07.741Z,99.99
2016-03-06T04:07:00.087Z,99.99
2016-03-06T04:08:00.104Z,99.99
2016-03-06T04:09:12.874Z,99.99
2016-03-06T04:10:00.313Z,99.99
2016-03-06T04:11:00.160Z,99.99
2016-03-06T04:12:00.179Z,99.99
2016-03-06T04:13:00.165Z,99.99
2016-03-06T04:14:06.465Z,99.99
2016-03-06T04:15:01.592Z,99.99
2016-03-06T04:16:12.954Z,99.99
2016-03-06T04:17:31.539Z,99.99
2016-03-06T04:18:21.695Z,99.99
2016-03-06T04:20:37.718Z,99.99
2016-03-06T04:21:37.720Z,99.99
2016-03-06T04:22:44.208Z,99.99
2016-03-06T04:23:37.758Z,99.99
2016-03-06T04:24:50.353Z,99.99
2016-03-06T04:25:44.044Z,99.99
2016-03-06T04:26:37.641Z,99.99
2016-03-06T04:27:50.550Z,99.99
2016-03-06T04:28:38.021Z,99.99
2016-03-06T04:29:37.899Z,99.99
2016-03-06T04:30:43.979Z,99.99
2016-03-06T04:33:18.532Z,99.99
2016-03-06T04:34:05.799Z,99.99
2016-03-06T04:35:25.038Z,99.99
2016-03-06T04:36:06.055Z,99.99
2016-03-06T04:37:05.855Z,99.99
2016-03-06T04:38:25.060Z,99.99
2016-03-06T04:40:24.129Z,99.99
2016-03-06T04:41:24.146Z,99.99
2016-03-06T04:42:36.902Z,99.99
2016-03-06T04:43:36.905Z,99.99
2016-03-06T04:44:24.218Z,99.99
2016-03-06T04:45:24.189Z,99.99
2016-03-06T04:46:30.492Z,99.99
2016-03-06T04:47:30.509Z,99.99
2016-03-06T04:48:43.450Z,99.99
2016-03-06T04:49:24.278Z,99.99
2016-03-06T04:50:24.265Z,99.99
2016-03-06T04:51:24.127Z,99.99
2016-03-06T04:52:25.723Z,99.99
2016-03-06T04:53:30.292Z,99.99
2016-03-06T04:54:29.685Z,99.99
2016-03-06T04:55:29.703Z,99.9
2016-03-06T04:56:30.335Z,99.81
2016-03-06T04:57:42.463Z,99.99
2016-03-06T04:58:29.747Z,99.43
2016-03-06T04:59:29.766Z,99.81
2016-03-06T05:00:30.065Z,99.9
2016-03-06T05:01:29.818Z,99.99
2016-03-06T05:02:36.085Z,99.99
2016-03-06T05:03:29.824Z,99.52
2016-03-06T05:04:42.576Z,99.62
2016-03-06T05:05:29.860Z,99.33
2016-03-06T05:06:49.096Z,99.62
2016-03-06T05:07:29.881Z,99.62
2016-03-06T05:09:01.196Z,99.9
2016-03-06T05:09:45.073Z,99.62
2016-03-06T05:10:45.076Z,99.62
2016-03-06T05:11:45.110Z,99.99
2016-03-06T05:12:45.112Z,99.99
2016-03-06T05:13:45.147Z,99.99
2016-03-06T05:14:57.868Z,99.99
2016-03-06T05:15:45.153Z,99.99
2016-03-06T05:17:04.373Z,99.99
2016-03-06T05:17:48.376Z,99.99
2016-03-06T05:19:10.036Z,99.99
2016-03-06T05:20:06.631Z,99.99
2016-03-06T05:21:16.259Z,99.99
2016-03-06T05:22:41.889Z,99.99
2016-03-06T05:23:51.736Z,99.99
2016-03-06T05:24:48.348Z,99.99
2016-03-06T05:25:58.492Z,99.99
2016-03-06T05:27:29.841Z,99.99
2016-03-06T05:28:08.060Z,99.99
2016-03-06T05:29:08.062Z,99.99
2016-03-06T05:30:08.081Z,99.99
2016-03-06T05:31:07.349Z,99.99
2016-03-06T05:32:27.304Z,99.99
2016-03-06T05:33:08.323Z,99.99
2016-03-06T05:34:33.813Z,99.99
2016-03-06T05:35:08.250Z,99.99
2016-03-06T05:36:39.474Z,99.99
2016-03-06T05:37:08.177Z,99.99
2016-03-06T05:39:14.136Z,99.99
2016-03-06T05:40:12.701Z,99.99
2016-03-06T05:41:12.703Z,99.99
2016-03-06T05:43:54.993Z,99.99
2016-03-06T05:44:29.340Z,99.99
2016-03-06T05:46:01.264Z,99.99
2016-03-06T05:46:45.126Z,99.99
2016-03-06T05:47:45.145Z,99.99
2016-03-06T05:50:01.775Z,99.99
2016-03-06T05:51:01.778Z,99.99
2016-03-06T05:53:37.598Z,99.99
2016-03-06T05:54:18.395Z,99.99
2016-03-06T05:55:44.088Z,99.99
2016-03-06T05:56:27.978Z,99.99
2016-03-06T05:57:47.218Z,99.99
2016-03-06T05:59:49.474Z,99.99
2016-03-06T06:00:43.241Z,99.99
2016-03-06T06:02:58.450Z,99.99
2016-03-06T06:03:58.499Z,99.99
2016-03-06T06:09:31.673Z,99.99
2016-03-06T06:10:34.754Z,99.99
2016-03-06T06:11:44.318Z,99.99
2016-03-06T06:12:53.868Z,99.99
2016-03-06T06:14:03.527Z,99.99
2016-03-06T06:15:13.076Z,99.99
2016-03-06T06:16:22.813Z,99.99
2016-03-06T06:17:32.365Z,99.99
2016-03-06T06:18:32.384Z,99.99
2016-03-06T06:19:32.386Z,99.99
2016-03-06T06:20:32.389Z,99.99
2016-03-06T06:21:45.142Z,99.99
2016-03-06T06:22:38.692Z,99.99
2016-03-06T06:23:51.631Z,99.99
2016-03-06T06:24:54.556Z,99.99
2016-03-06T06:25:35.512Z,99.99
2016-03-06T06:27:06.827Z,99.99
2016-03-06T06:27:45.081Z,99.99
2016-03-06T06:29:16.380Z,99.99
2016-03-06T06:30:00.226Z,99.99
2016-03-06T06:31:00.275Z,99.99
2016-03-06T06:33:15.406Z,99.99
2016-03-06T06:34:15.487Z,99.99
2016-03-06T06:36:56.917Z,99.99
2016-03-06T06:37:31.248Z,99.99
2016-03-06T06:39:46.457Z,99.99
2016-03-06T06:40:46.537Z,99.99
2016-03-06T06:42:17.774Z,99.99
2016-03-06T06:43:01.745Z,99.99
2016-03-06T06:44:01.779Z,99.99
2016-03-06T06:45:33.082Z,99.99
2016-03-06T06:46:17.082Z,99.99
2016-03-06T06:47:17.068Z,99.99
2016-03-06T06:49:57.999Z,99.99
2016-03-06T06:50:32.345Z,99.99
2016-03-06T06:53:13.256Z,99.99
2016-03-06T06:53:47.603Z,99.99
2016-03-06T06:55:13.277Z,99.99
2016-03-06T06:55:49.031Z,99.99
2016-03-06T06:57:13.517Z,99.99
2016-03-06T06:57:57.505Z,99.99
2016-03-06T06:59:16.725Z,99.99
2016-03-06T07:00:28.822Z,99.99
2016-03-06T07:00:57.528Z,99.71
2016-03-06T07:03:02.846Z,98.3
2016-03-06T07:04:34.774Z,96.97
2016-03-06T07:05:13.039Z,96.5
2016-03-06T07:06:13.047Z,96.21
2016-03-06T07:07:25.893Z,96.02
2016-03-06T07:08:13.084Z,95.17
2016-03-06T07:09:13.070Z,94.98
2016-03-06T07:10:13.104Z,95.07
2016-03-06T07:11:12.967Z,94.89
2016-03-06T07:12:13.126Z,94.98
2016-03-06T07:13:13.175Z,95.36
2016-03-06T07:14:13.146Z,94.51
2016-03-06T07:15:13.259Z,94.32
2016-03-06T07:16:13.198Z,93.99
2016-03-06T07:17:13.201Z,94.08
2016-03-06T07:18:13.204Z,93.7
2016-03-06T07:19:13.238Z,93.32
2016-03-06T07:20:13.256Z,92.94
2016-03-06T07:21:13.258Z,92.19
2016-03-06T07:22:13.277Z,91.24
2016-03-06T07:23:13.295Z,91.05
2016-03-06T07:24:13.298Z,91.24
2016-03-06T07:25:13.316Z,91.09
2016-03-06T07:26:13.335Z,91.09
2016-03-06T07:27:13.353Z,90.91
2016-03-06T07:28:13.559Z,91.28
2016-03-06T07:29:13.640Z,91.76
2016-03-06T07:30:13.439Z,91.47
2016-03-06T07:31:13.411Z,91.09
2016-03-06T07:32:13.477Z,91.09
2016-03-06T07:33:13.432Z,91.09
2016-03-06T07:34:13.482Z,90.43
2016-03-06T07:35:13.468Z,91.38
2016-03-06T07:36:13.549Z,91.38
2016-03-06T07:37:13.505Z,89.86
2016-03-06T07:38:13.507Z,89.01
2016-03-06T07:39:13.526Z,88.58
2016-03-06T07:40:13.545Z,88.01
2016-03-06T07:41:13.547Z,87.63
2016-03-06T07:42:13.565Z,87.35
2016-03-06T07:43:13.584Z,87.45
2016-03-06T07:44:13.602Z,87.35
2016-03-06T07:45:13.636Z,87.45
2016-03-06T07:46:13.639Z,87.35
2016-03-06T07:47:13.657Z,87.45
2016-03-06T07:48:13.659Z,87.92
2016-03-06T07:49:26.428Z,88.16
2016-03-06T07:50:13.712Z,88.1
2016-03-06T07:51:13.730Z,88.2
2016-03-06T07:52:13.733Z,87.73
2016-03-06T07:53:13.766Z,87.35
2016-03-06T07:54:13.769Z,87.16
2016-03-06T07:55:13.803Z,85.55
2016-03-06T07:56:13.805Z,83.74
2016-03-06T07:57:13.808Z,83.55
2016-03-06T07:58:13.936Z,83.78
2016-03-06T07:59:13.846Z,83.59
2016-03-06T08:00:13.864Z,83.5
2016-03-06T08:01:13.882Z,83.69
2016-03-06T08:02:13.900Z,83.4
2016-03-06T08:03:13.935Z,83.5
2016-03-06T08:04:13.921Z,83.5
2016-03-06T08:05:13.924Z,83.78
2016-03-06T08:06:13.965Z,83.5
2016-03-06T08:07:13.969Z,83.12
2016-03-06T08:08:14.002Z,83.69
2016-03-06T08:09:14.052Z,83.22
2016-03-06T08:10:14.054Z,82.93
2016-03-06T08:11:14.057Z,82.84
2016-03-06T08:12:14.059Z,82.84
2016-03-06T08:13:14.125Z,83.4
2016-03-06T08:14:14.175Z,83.78
2016-03-06T08:15:14.709Z,83.69
2016-03-06T08:16:14.820Z,83.4
2016-03-06T08:17:14.151Z,83.31
2016-03-06T08:18:14.419Z,83.12
2016-03-06T08:19:14.298Z,83.59
2016-03-06T08:20:27.019Z,84.07
2016-03-06T08:21:14.303Z,82.74
2016-03-06T08:22:14.336Z,82.55
2016-03-06T08:23:14.309Z,82.55
2016-03-06T08:24:14.498Z,82.84
2016-03-06T08:25:14.313Z,82.17
2016-03-06T08:26:14.504Z,82.69
2016-03-06T08:27:14.319Z,81.93
2016-03-06T08:28:27.213Z,81.45
2016-03-06T08:29:14.355Z,82.4
2016-03-06T08:30:33.657Z,81.17
2016-03-06T08:31:15.376Z,80.56
2016-03-06T08:32:33.663Z,80.6
2016-03-06T08:33:14.429Z,81.04
2016-03-06T08:34:14.431Z,81.98
2016-03-06T08:35:14.590Z,81.88
2016-03-06T08:36:14.484Z,80.46
2016-03-06T08:37:27.221Z,80.88
2016-03-06T08:38:14.504Z,79.84
2016-03-06T08:39:14.602Z,78.99
2016-03-06T08:40:14.541Z,79.17
2016-03-06T08:41:14.575Z,77.75
2016-03-06T08:42:14.563Z,77.75
2016-03-06T08:43:14.612Z,77.12
2016-03-06T08:44:14.615Z,76.75
2016-03-06T08:45:14.618Z,75.99
2016-03-06T08:46:14.651Z,75.04
2016-03-06T08:47:14.685Z,75.23
2016-03-06T08:48:15.516Z,75.6
2016-03-06T08:49:17.190Z,76.46
2016-03-06T08:50:14.787Z,76.56
2016-03-06T08:51:27.492Z,76.08
2016-03-06T08:52:14.871Z,76.32
2016-03-06T08:53:14.780Z,76.27
2016-03-06T08:54:14.798Z,76.52
2016-03-06T08:55:14.831Z,77.28
2016-03-06T08:56:14.834Z,77.28
2016-03-06T08:57:14.837Z,77.37
2016-03-06T08:58:27.589Z,77.47
2016-03-06T08:59:14.874Z,77.66
2016-03-06T09:00:14.877Z,77.66
2016-03-06T09:01:14.895Z,77.56
2016-03-06T09:02:14.929Z,77.28
2016-03-06T09:03:14.947Z,76.93
2016-03-06T09:04:14.966Z,76.93
2016-03-06T09:05:22.655Z,75.32
2016-03-06T09:06:14.985Z,75.04
2016-03-06T09:07:40.741Z,73.52
2016-03-06T09:08:24.616Z,73.27
2016-03-06T09:09:24.635Z,73.27
2016-03-06T09:10:24.654Z,73.08
2016-03-06T09:11:24.687Z,75.07
2016-03-06T09:12:24.690Z,74.6
2016-03-06T09:13:24.724Z,73.93
2016-03-06T09:14:24.711Z,72.22
2016-03-06T09:15:24.745Z,71.94
2016-03-06T09:16:37.515Z,71.75
2016-03-06T09:17:24.797Z,71.18
2016-03-06T09:18:24.816Z,70.32
2016-03-06T09:19:25.850Z,71.75
2016-03-06T09:20:24.852Z,71.08
2016-03-06T09:21:24.871Z,69.85
2016-03-06T09:22:24.873Z,71.75
2016-03-06T09:23:24.891Z,70.99
2016-03-06T09:24:24.925Z,71.18
2016-03-06T09:25:24.928Z,72.19
2016-03-06T09:26:37.699Z,72.75
2016-03-06T09:27:24.964Z,72.09
2016-03-06T09:28:24.983Z,73.04
2016-03-06T09:29:25.001Z,74.18
2016-03-06T09:30:25.019Z,73.14
2016-03-06T09:31:25.038Z,72.38
2016-03-06T09:32:25.072Z,72.38
2016-03-06T09:33:25.075Z,73.04
2016-03-06T09:34:25.108Z,73.18
2016-03-06T09:35:25.127Z,74.03
2016-03-06T09:36:25.146Z,71.84
2016-03-06T09:37:26.632Z,72.41
2016-03-06T09:38:37.919Z,71.66
2016-03-06T09:39:25.185Z,72.22
2016-03-06T09:40:44.424Z,72.41
2016-03-06T09:41:28.315Z,71.18
2016-03-06T09:42:47.524Z,71.18
2016-03-06T09:43:28.352Z,72.6
2016-03-06T09:44:59.778Z,71.08
2016-03-06T09:45:43.673Z,71.27
2016-03-06T09:47:02.909Z,72.22
2016-03-06T09:47:43.708Z,73.36
2016-03-06T09:48:43.743Z,74.03
2016-03-06T09:49:43.761Z,73.74
2016-03-06T09:50:43.764Z,71.94
2016-03-06T09:51:43.798Z,72.51
2016-03-06T09:52:43.800Z,73.74
2016-03-06T09:53:43.834Z,71.84
2016-03-06T09:54:56.572Z,72.09
2016-03-06T09:55:43.870Z,74.56
2016-03-06T09:57:03.092Z,74.27
2016-03-06T09:57:43.892Z,74.03
2016-03-06T09:59:09.567Z,72.56
2016-03-06T09:59:43.944Z,71.94
2016-03-06T10:01:59.137Z,72.41
2016-03-06T10:02:59.171Z,70.7
2016-03-06T10:03:59.173Z,70.89
2016-03-06T10:04:59.208Z,69.85
2016-03-06T10:05:59.210Z,69.85
2016-03-06T10:06:59.260Z,71.59
2016-03-06T10:07:59.247Z,72.45
2016-03-06T10:09:12.187Z,70.93
2016-03-06T10:09:59.299Z,69.69
2016-03-06T10:10:59.318Z,68.84
2016-03-06T10:11:59.913Z,68.55
2016-03-06T10:12:59.338Z,67.22
2016-03-06T10:13:59.357Z,67.79
2016-03-06T10:14:59.406Z,67.13
2016-03-06T10:15:59.425Z,66.08
2016-03-06T10:16:59.427Z,65.51
2016-03-06T10:17:59.508Z,65.89
2016-03-06T10:18:59.464Z,66.05
2016-03-06T10:19:59.529Z,65.8
2016-03-06T10:20:59.500Z,65.41
2016-03-06T10:21:59.503Z,64.27
2016-03-06T10:22:59.537Z,65.57
2016-03-06T10:23:59.556Z,66.08
2016-03-06T10:24:59.573Z,65.8
2016-03-06T10:25:59.592Z,66.55
2016-03-06T10:26:59.611Z,67.03
2016-03-06T10:27:59.628Z,65.8
2016-03-06T10:28:59.663Z,65.7
2016-03-06T10:29:59.666Z,65.89
2016-03-06T10:31:06.074Z,67.03
2016-03-06T10:31:59.718Z,67.98
2016-03-06T10:32:59.799Z,67.98
2016-03-06T10:33:59.754Z,64.65
2016-03-06T10:34:59.773Z,64.27
2016-03-06T10:35:59.807Z,65.03
2016-03-06T10:36:59.809Z,66.27
2016-03-06T10:37:59.843Z,66.74
2016-03-06T10:38:59.846Z,67.32
2016-03-06T10:40:06.130Z,65.32
2016-03-06T10:40:59.882Z,64.46
2016-03-06T10:41:59.901Z,65.32
2016-03-06T10:42:59.935Z,65.8
2016-03-06T10:43:59.953Z,65.99
2016-03-06T10:44:59.956Z,66.46
2016-03-06T10:45:59.990Z,66.08
2016-03-06T10:47:02.507Z,66.74
2016-03-06T10:48:00.058Z,67.22
2016-03-06T10:49:00.060Z,67.76
2016-03-06T10:50:00.078Z,66.84
2016-03-06T10:51:00.097Z,66.84
2016-03-06T10:52:00.114Z,67.85
2016-03-06T10:53:00.149Z,68.17
2016-03-06T10:54:00.151Z,68.07
2016-03-06T10:55:00.233Z,67.03
2016-03-06T10:56:00.173Z,65.89
2016-03-06T10:57:00.238Z,66.46
2016-03-06T10:58:00.225Z,67.6
2016-03-06T10:59:00.244Z,67.22
2016-03-06T11:00:00.261Z,68.07
2016-03-06T11:01:00.280Z,67.88
2016-03-06T11:02:00.142Z,67.22
2016-03-06T11:03:00.317Z,68.93
2016-03-06T11:04:00.335Z,68.74
2016-03-06T11:05:13.103Z,67.69
2016-03-06T11:06:06.528Z,67.32
2016-03-06T11:07:00.405Z,67.13
2016-03-06T11:08:00.423Z,67.69
2016-03-06T11:09:31.739Z,67.32
2016-03-06T11:10:03.554Z,67.13
2016-03-06T11:11:03.557Z,66.17
2016-03-06T11:12:03.574Z,67.69
2016-03-06T11:13:03.640Z,66.46
2016-03-06T11:14:03.612Z,64.11
2016-03-06T11:15:04.255Z,67.22
2016-03-06T11:16:03.664Z,67.88
2016-03-06T11:17:16.417Z,66.46
2016-03-06T11:18:03.701Z,67.5
2016-03-06T11:19:03.766Z,67.22
2016-03-06T11:20:03.737Z,66.46
2016-03-06T11:21:04.381Z,68.17
2016-03-06T11:22:03.774Z,68.17
2016-03-06T11:23:03.808Z,67.69
2016-03-06T11:24:03.842Z,67.22
2016-03-06T11:25:03.844Z,66.68
2016-03-06T11:26:03.848Z,67.07
2016-03-06T11:27:05.069Z,65.35
2016-03-06T11:28:03.899Z,65.92
2016-03-06T11:29:23.106Z,65.06
2016-03-06T11:30:03.983Z,65.19
2016-03-06T11:31:03.938Z,63.57
2016-03-06T11:32:04.036Z,62.81
2016-03-06T11:33:04.006Z,62.91
2016-03-06T11:34:04.009Z,62.53
2016-03-06T11:35:16.778Z,61.1
2016-03-06T11:36:04.077Z,61.22
2016-03-06T11:37:29.767Z,62.15
2016-03-06T11:38:13.650Z,62.15
2016-03-06T11:39:13.670Z,62.43
2016-03-06T11:40:13.688Z,61
2016-03-06T11:41:13.721Z,60.82
2016-03-06T11:42:13.740Z,62.72
2016-03-06T11:43:13.758Z,62.53
2016-03-06T11:44:13.776Z,61.96
2016-03-06T11:45:13.811Z,62.24
2016-03-06T11:46:14.344Z,62.53
2016-03-06T11:47:13.910Z,64.34
2016-03-06T11:48:26.600Z,63.67
2016-03-06T11:49:14.540Z,62.53
2016-03-06T11:51:23.529Z,59.23
2016-03-06T11:52:23.532Z,59.51
2016-03-06T11:53:23.644Z,59.42
2016-03-06T11:54:23.569Z,58.08
2016-03-06T11:55:23.603Z,58.75
2016-03-06T11:56:23.606Z,59.42
2016-03-06T11:57:23.640Z,59.03
2016-03-06T11:58:36.989Z,59.61
2016-03-06T11:59:23.676Z,57.6
2016-03-06T12:00:42.900Z,58.56
2016-03-06T12:01:23.728Z,58.3
2016-03-06T12:02:24.357Z,56.02
2016-03-06T12:03:23.750Z,56.87
2016-03-06T12:04:23.878Z,57.23
2016-03-06T12:05:23.817Z,58.84
2016-03-06T12:06:23.928Z,59.13
2016-03-06T12:07:24.198Z,58.84
2016-03-06T12:08:23.872Z,58.75
2016-03-06T12:09:23.906Z,57.96
2016-03-06T12:10:23.956Z,58.28
2016-03-06T12:11:36.680Z,57.23
2016-03-06T12:12:23.945Z,58.08
2016-03-06T12:13:43.169Z,58.84
2016-03-06T12:14:24.185Z,57.39
2016-03-06T12:15:24.000Z,58.53
2016-03-06T12:16:30.285Z,59.01
2016-03-06T12:17:24.099Z,58.81
2016-03-06T12:18:24.071Z,59.77
2016-03-06T12:19:24.167Z,59.77
2016-03-06T12:20:24.107Z,60.15
2016-03-06T12:21:24.157Z,59.1
2016-03-06T12:22:24.160Z,58.56
2016-03-06T12:23:24.178Z,58.65
2016-03-06T12:24:24.182Z,60.56
2016-03-06T12:25:24.199Z,60.85
2016-03-06T12:26:24.248Z,59.32
2016-03-06T12:27:24.252Z,59.51
2016-03-06T12:28:24.317Z,60.66
2016-03-06T12:29:24.287Z,61.04
2016-03-06T12:30:24.306Z,59.8
2016-03-06T12:31:24.341Z,58.94
2016-03-06T12:32:24.374Z,59.39
2016-03-06T12:33:24.376Z,59.29
2016-03-06T12:34:30.661Z,59.86
2016-03-06T12:35:24.414Z,60.44
2016-03-06T12:36:24.431Z,61.48
2016-03-06T12:37:25.872Z,62.69
2016-03-06T12:38:24.687Z,63.35
2016-03-06T12:39:24.597Z,62.4
2016-03-06T12:40:24.520Z,62.97
2016-03-06T12:41:24.602Z,63.73
2016-03-06T12:42:24.573Z,63.35
2016-03-06T12:43:24.575Z,63.99
2016-03-06T12:44:24.610Z,64.27
2016-03-06T12:45:26.032Z,64.46
2016-03-06T12:46:24.601Z,63.23
2016-03-06T12:47:27.669Z,64.75
2016-03-06T12:48:24.627Z,65.32
2016-03-06T12:49:24.649Z,65.8
2016-03-06T12:50:24.655Z,65.25
2016-03-06T12:51:24.669Z,65.89
2016-03-06T12:52:24.746Z,67.22
2016-03-06T12:53:24.697Z,66.39
2016-03-06T12:54:24.759Z,65.6
2016-03-06T12:55:24.742Z,64.56
2016-03-06T12:56:24.759Z,64.37
2016-03-06T12:57:24.775Z,65.41
2016-03-06T12:58:24.792Z,66.36
2016-03-06T12:59:24.794Z,67.5
2016-03-06T13:00:24.795Z,67.57
2016-03-06T13:01:24.859Z,66.9
2016-03-06T13:02:40.581Z,67.76
2016-03-06T13:03:25.050Z,67.66
2016-03-06T13:04:24.897Z,67.76
2016-03-06T13:05:25.132Z,66.33
2016-03-06T13:06:24.931Z,66.61
2016-03-06T13:07:25.246Z,66.46
2016-03-06T13:08:24.953Z,66.36
2016-03-06T13:09:24.970Z,66.46
2016-03-06T13:10:37.741Z,66.55
2016-03-06T13:11:25.022Z,66.27
2016-03-06T13:12:25.055Z,65.95
2016-03-06T13:13:25.058Z,66.55
2016-03-06T13:14:25.093Z,65.99
2016-03-06T13:15:31.360Z,65.7
2016-03-06T13:16:25.114Z,64.56
2016-03-06T13:17:37.884Z,63.89
2016-03-06T13:18:25.165Z,63.32
2016-03-06T13:19:44.390Z,61.77
2016-03-06T13:20:25.218Z,61.61
2016-03-06T13:21:56.520Z,62.27
2016-03-06T13:22:25.223Z,62.56
2016-03-06T13:23:25.257Z,62.65
2016-03-06T13:24:38.559Z,62.56
2016-03-06T13:25:29.790Z,61.32
2016-03-06T13:26:44.508Z,61.23
2016-03-06T13:27:32.106Z,61.8
2016-03-06T13:28:51.030Z,60.94
2016-03-06T13:29:47.752Z,61.42
2016-03-06T13:30:34.986Z,61.71
2016-03-06T13:32:06.304Z,62.94
2016-03-06T13:33:15.979Z,62.94
2016-03-06T13:33:50.310Z,62.94
2016-03-06T13:35:21.624Z,62.85
2016-03-06T13:36:31.237Z,62.65
2016-03-06T13:37:05.582Z,63.23
2016-03-06T13:39:21.478Z,62.46
2016-03-06T13:41:57.548Z,61.9
2016-03-06T13:42:31.845Z,62.37
2016-03-06T13:44:47.056Z,62.46
2016-03-06T13:45:47.074Z,62.27
2016-03-06T13:47:18.391Z,62.27
2016-03-06T13:48:22.924Z,63.13
2016-03-06T13:49:03.786Z,61.9
2016-03-06T13:50:29.539Z,62.05
2016-03-06T13:51:16.463Z,62.34
2016-03-06T13:52:58.032Z,62.05
2016-03-06T13:53:41.924Z,62.62
2016-03-06T13:54:51.521Z,62.94
2016-03-06T13:58:03.749Z,61.23
2016-03-06T13:59:03.798Z,61.61
2016-03-06T14:01:19.022Z,62.27
2016-03-06T14:02:19.010Z,61.23
2016-03-06T14:03:19.059Z,61.13
2016-03-06T14:04:19.046Z,60.78
2016-03-06T14:07:00.268Z,60.69
2016-03-06T14:07:34.518Z,60.21